sensor_id;sensor_type;location;lat;lon;timestamp;temperature;humidity
12481;DHT22;6305;48.398;11.762;2022-09-27T00:00:38;10.40;99.90
12481;DHT22;6305;48.398;11.762;2022-09-27T00:03:06;10.30;99.90
12481;DHT22;6305;48.398;11.762;2022-09-27T00:05:33;10.20;99.90
12481;DHT22;6305;48.398;11.762;2022-09-27T00:08:00;10.10;99.90
12481;DHT22;6305;48.398;11.762;2022-09-27T00:10:26;10.10;99.90
12481;DHT22;6305;48.398;11.762;2022-09-27T00:12:54;10.00;99.90
12481;DHT22;6305;48.398;11.762;2022-09-27T00:15:20;10.10;99.90
12481;DHT22;6305;48.398;11.762;2022-09-27T00:17:49;10.00;99.90
12481;DHT22;6305;48.398;11.762;2022-09-27T00:20:17;10.10;99.90
12481;DHT22;6305;48.398;11.762;2022-09-27T00:22:43;10.10;99.90
12481;DHT22;6305;48.398;11.762;2022-09-27T00:25:10;10.10;99.90
12481;DHT22;6305;48.398;11.762;2022-09-27T00:27:37;10.10;99.90
12481;DHT22;6305;48.398;11.762;2022-09-27T00:30:04;10.10;99.90
12481;DHT22;6305;48.398;11.762;2022-09-27T00:32:31;10.10;99.90
12481;DHT22;6305;48.398;11.762;2022-09-27T00:34:59;10.10;99.90
12481;DHT22;6305;48.398;11.762;2022-09-27T00:37:26;10.10;99.90
12481;DHT22;6305;48.398;11.762;2022-09-27T00:39:52;10.10;99.90
12481;DHT22;6305;48.398;11.762;2022-09-27T00:42:19;10.00;99.90
12481;DHT22;6305;48.398;11.762;2022-09-27T00:45:00;10.00;99.90
12481;DHT22;6305;48.398;11.762;2022-09-27T00:47:31;9.90;99.90
12481;DHT22;6305;48.398;11.762;2022-09-27T00:50:06;9.90;99.90
12481;DHT22;6305;48.398;11.762;2022-09-27T00:52:41;9.80;99.90
12481;DHT22;6305;48.398;11.762;2022-09-27T00:55:13;9.80;99.90
12481;DHT22;6305;48.398;11.762;2022-09-27T00:57:41;9.70;99.90
12481;DHT22;6305;48.398;11.762;2022-09-27T01:00:12;9.60;99.90
12481;DHT22;6305;48.398;11.762;2022-09-27T01:02:45;9.60;99.90
12481;DHT22;6305;48.398;11.762;2022-09-27T01:05:15;9.50;99.90
12481;DHT22;6305;48.398;11.762;2022-09-27T01:07:43;9.50;99.90
12481;DHT22;6305;48.398;11.762;2022-09-27T01:10:09;9.40;99.90
12481;DHT22;6305;48.398;11.762;2022-09-27T01:12:44;9.40;99.90
12481;DHT22;6305;48.398;11.762;2022-09-27T01:15:23;9.40;99.90
12481;DHT22;6305;48.398;11.762;2022-09-27T01:17:59;9.40;99.90
12481;DHT22;6305;48.398;11.762;2022-09-27T01:20:51;9.40;99.90
12481;DHT22;6305;48.398;11.762;2022-09-27T01:23:46;9.40;99.90
12481;DHT22;6305;48.398;11.762;2022-09-27T01:26:28;9.40;99.90
12481;DHT22;6305;48.398;11.762;2022-09-27T01:29:03;9.40;99.90
12481;DHT22;6305;48.398;11.762;2022-09-27T01:31:39;9.40;99.90
12481;DHT22;6305;48.398;11.762;2022-09-27T01:34:12;9.40;99.90
12481;DHT22;6305;48.398;11.762;2022-09-27T01:36:47;9.40;99.90
12481;DHT22;6305;48.398;11.762;2022-09-27T01:39:27;9.40;99.90
12481;DHT22;6305;48.398;11.762;2022-09-27T01:42:00;9.40;99.90
12481;DHT22;6305;48.398;11.762;2022-09-27T01:44:31;9.40;99.90
12481;DHT22;6305;48.398;11.762;2022-09-27T01:47:04;9.40;99.90
12481;DHT22;6305;48.398;11.762;2022-09-27T01:49:34;9.30;99.90
12481;DHT22;6305;48.398;11.762;2022-09-27T01:52:06;9.30;99.90
12481;DHT22;6305;48.398;11.762;2022-09-27T01:54:38;9.30;99.90
12481;DHT22;6305;48.398;11.762;2022-09-27T01:57:06;9.30;99.90
12481;DHT22;6305;48.398;11.762;2022-09-27T01:59:40;9.30;99.90
12481;DHT22;6305;48.398;11.762;2022-09-27T02:02:09;9.30;99.90
12481;DHT22;6305;48.398;11.762;2022-09-27T02:04:39;9.30;99.90
12481;DHT22;6305;48.398;11.762;2022-09-27T02:07:10;9.30;99.90
12481;DHT22;6305;48.398;11.762;2022-09-27T02:09:40;9.30;99.90
12481;DHT22;6305;48.398;11.762;2022-09-27T02:12:12;9.40;99.90
12481;DHT22;6305;48.398;11.762;2022-09-27T02:14:42;9.40;99.90
12481;DHT22;6305;48.398;11.762;2022-09-27T02:17:20;9.40;99.90
12481;DHT22;6305;48.398;11.762;2022-09-27T02:19:53;9.40;99.90
12481;DHT22;6305;48.398;11.762;2022-09-27T02:22:28;9.40;99.90
12481;DHT22;6305;48.398;11.762;2022-09-27T02:24:59;9.40;99.90
12481;DHT22;6305;48.398;11.762;2022-09-27T02:27:30;9.40;99.90
12481;DHT22;6305;48.398;11.762;2022-09-27T02:30:01;9.40;99.90
12481;DHT22;6305;48.398;11.762;2022-09-27T02:32:29;9.40;99.90
12481;DHT22;6305;48.398;11.762;2022-09-27T02:34:59;9.40;99.90
12481;DHT22;6305;48.398;11.762;2022-09-27T02:37:26;9.40;99.90
12481;DHT22;6305;48.398;11.762;2022-09-27T02:39:53;9.40;99.90
12481;DHT22;6305;48.398;11.762;2022-09-27T02:42:20;9.40;99.90
12481;DHT22;6305;48.398;11.762;2022-09-27T02:44:47;9.40;99.90
12481;DHT22;6305;48.398;11.762;2022-09-27T02:47:30;9.40;99.90
12481;DHT22;6305;48.398;11.762;2022-09-27T02:50:10;9.30;99.90
12481;DHT22;6305;48.398;11.762;2022-09-27T02:52:51;9.30;99.90
12481;DHT22;6305;48.398;11.762;2022-09-27T02:55:25;9.30;99.90
12481;DHT22;6305;48.398;11.762;2022-09-27T02:58:02;9.30;99.90
12481;DHT22;6305;48.398;11.762;2022-09-27T03:00:35;9.30;99.90
12481;DHT22;6305;48.398;11.762;2022-09-27T03:03:11;9.20;99.90
12481;DHT22;6305;48.398;11.762;2022-09-27T03:05:42;9.20;99.90
12481;DHT22;6305;48.398;11.762;2022-09-27T03:08:10;9.20;99.90
12481;DHT22;6305;48.398;11.762;2022-09-27T03:10:37;9.20;99.90
12481;DHT22;6305;48.398;11.762;2022-09-27T03:13:04;9.20;99.90
12481;DHT22;6305;48.398;11.762;2022-09-27T03:15:31;9.20;99.90
12481;DHT22;6305;48.398;11.762;2022-09-27T03:17:58;9.20;99.90
12481;DHT22;6305;48.398;11.762;2022-09-27T03:20:26;9.20;99.90
12481;DHT22;6305;48.398;11.762;2022-09-27T03:22:53;9.20;99.90
12481;DHT22;6305;48.398;11.762;2022-09-27T03:25:20;9.20;99.90
12481;DHT22;6305;48.398;11.762;2022-09-27T03:27:47;9.20;99.90
12481;DHT22;6305;48.398;11.762;2022-09-27T03:30:14;9.20;99.90
12481;DHT22;6305;48.398;11.762;2022-09-27T03:32:42;9.20;99.90
12481;DHT22;6305;48.398;11.762;2022-09-27T03:35:09;9.20;99.90
12481;DHT22;6305;48.398;11.762;2022-09-27T03:37:37;9.20;99.90
12481;DHT22;6305;48.398;11.762;2022-09-27T03:40:05;9.20;99.90
12481;DHT22;6305;48.398;11.762;2022-09-27T03:42:31;9.20;99.90
12481;DHT22;6305;48.398;11.762;2022-09-27T03:44:58;9.20;99.90
12481;DHT22;6305;48.398;11.762;2022-09-27T03:47:25;9.20;99.90
12481;DHT22;6305;48.398;11.762;2022-09-27T03:49:51;9.20;99.90
12481;DHT22;6305;48.398;11.762;2022-09-27T03:52:18;9.20;99.90
12481;DHT22;6305;48.398;11.762;2022-09-27T03:54:46;9.20;99.90
12481;DHT22;6305;48.398;11.762;2022-09-27T03:57:13;9.20;99.90
12481;DHT22;6305;48.398;11.762;2022-09-27T03:59:40;9.20;99.90
12481;DHT22;6305;48.398;11.762;2022-09-27T04:02:06;9.20;99.90
12481;DHT22;6305;48.398;11.762;2022-09-27T04:04:33;9.20;99.90
12481;DHT22;6305;48.398;11.762;2022-09-27T04:07:00;9.20;99.90
12481;DHT22;6305;48.398;11.762;2022-09-27T04:09:27;9.20;99.90
12481;DHT22;6305;48.398;11.762;2022-09-27T04:11:55;9.30;99.90
12481;DHT22;6305;48.398;11.762;2022-09-27T04:14:21;9.30;99.90
12481;DHT22;6305;48.398;11.762;2022-09-27T04:16:48;9.30;99.90
12481;DHT22;6305;48.398;11.762;2022-09-27T04:19:15;9.30;99.90
12481;DHT22;6305;48.398;11.762;2022-09-27T04:21:41;9.30;99.90
12481;DHT22;6305;48.398;11.762;2022-09-27T04:24:08;9.30;99.90
12481;DHT22;6305;48.398;11.762;2022-09-27T04:26:36;9.30;99.90
12481;DHT22;6305;48.398;11.762;2022-09-27T04:29:05;9.30;99.90
12481;DHT22;6305;48.398;11.762;2022-09-27T04:31:34;9.30;99.90
12481;DHT22;6305;48.398;11.762;2022-09-27T04:34:02;9.30;99.90
12481;DHT22;6305;48.398;11.762;2022-09-27T04:36:29;9.30;99.90
12481;DHT22;6305;48.398;11.762;2022-09-27T04:38:56;9.30;99.90
12481;DHT22;6305;48.398;11.762;2022-09-27T04:41:24;9.30;99.90
12481;DHT22;6305;48.398;11.762;2022-09-27T04:43:51;9.30;99.90
12481;DHT22;6305;48.398;11.762;2022-09-27T04:46:20;9.30;99.90
12481;DHT22;6305;48.398;11.762;2022-09-27T04:48:47;9.30;99.90
12481;DHT22;6305;48.398;11.762;2022-09-27T04:51:15;9.30;99.90
12481;DHT22;6305;48.398;11.762;2022-09-27T04:53:42;9.30;99.90
12481;DHT22;6305;48.398;11.762;2022-09-27T04:56:09;9.20;99.90
12481;DHT22;6305;48.398;11.762;2022-09-27T04:58:37;9.20;99.90
12481;DHT22;6305;48.398;11.762;2022-09-27T05:01:04;9.20;99.90
12481;DHT22;6305;48.398;11.762;2022-09-27T05:03:33;9.10;99.90
12481;DHT22;6305;48.398;11.762;2022-09-27T05:05:59;9.20;99.90
12481;DHT22;6305;48.398;11.762;2022-09-27T05:08:27;9.20;99.90
12481;DHT22;6305;48.398;11.762;2022-09-27T05:10:54;9.20;99.90
12481;DHT22;6305;48.398;11.762;2022-09-27T05:13:21;9.20;99.90
12481;DHT22;6305;48.398;11.762;2022-09-27T05:15:48;9.20;99.90
12481;DHT22;6305;48.398;11.762;2022-09-27T05:18:14;9.30;99.90
12481;DHT22;6305;48.398;11.762;2022-09-27T05:20:43;9.30;99.90
12481;DHT22;6305;48.398;11.762;2022-09-27T05:23:10;9.20;99.90
12481;DHT22;6305;48.398;11.762;2022-09-27T05:25:37;9.20;99.90
12481;DHT22;6305;48.398;11.762;2022-09-27T05:28:04;9.20;99.90
12481;DHT22;6305;48.398;11.762;2022-09-27T05:30:30;9.20;99.90
12481;DHT22;6305;48.398;11.762;2022-09-27T05:32:57;9.20;99.90
12481;DHT22;6305;48.398;11.762;2022-09-27T05:35:24;9.20;99.90
12481;DHT22;6305;48.398;11.762;2022-09-27T05:37:53;9.20;99.90
12481;DHT22;6305;48.398;11.762;2022-09-27T05:40:21;9.20;99.90
12481;DHT22;6305;48.398;11.762;2022-09-27T05:42:50;9.20;99.90
12481;DHT22;6305;48.398;11.762;2022-09-27T05:45:17;9.20;99.90
12481;DHT22;6305;48.398;11.762;2022-09-27T05:47:51;9.30;99.90
12481;DHT22;6305;48.398;11.762;2022-09-27T05:50:18;9.30;99.90
12481;DHT22;6305;48.398;11.762;2022-09-27T05:52:45;9.30;99.90
12481;DHT22;6305;48.398;11.762;2022-09-27T05:55:13;9.30;99.90
12481;DHT22;6305;48.398;11.762;2022-09-27T05:57:39;9.30;99.90
12481;DHT22;6305;48.398;11.762;2022-09-27T06:00:08;9.30;99.90
12481;DHT22;6305;48.398;11.762;2022-09-27T06:02:35;9.30;99.90
12481;DHT22;6305;48.398;11.762;2022-09-27T06:05:01;9.30;99.90
12481;DHT22;6305;48.398;11.762;2022-09-27T06:07:29;9.40;99.90
12481;DHT22;6305;48.398;11.762;2022-09-27T06:09:56;9.40;99.90
12481;DHT22;6305;48.398;11.762;2022-09-27T06:12:24;9.40;99.90
12481;DHT22;6305;48.398;11.762;2022-09-27T06:14:51;9.50;99.90
12481;DHT22;6305;48.398;11.762;2022-09-27T06:17:17;9.50;99.90
12481;DHT22;6305;48.398;11.762;2022-09-27T06:19:44;9.60;99.90
12481;DHT22;6305;48.398;11.762;2022-09-27T06:22:12;9.60;99.90
12481;DHT22;6305;48.398;11.762;2022-09-27T06:24:38;9.70;99.90
12481;DHT22;6305;48.398;11.762;2022-09-27T06:27:06;9.70;99.90
12481;DHT22;6305;48.398;11.762;2022-09-27T06:29:34;9.70;99.90
12481;DHT22;6305;48.398;11.762;2022-09-27T06:32:01;9.80;99.90
12481;DHT22;6305;48.398;11.762;2022-09-27T06:34:29;9.80;99.90
12481;DHT22;6305;48.398;11.762;2022-09-27T06:36:56;9.90;99.90
12481;DHT22;6305;48.398;11.762;2022-09-27T06:39:22;10.00;99.90
12481;DHT22;6305;48.398;11.762;2022-09-27T06:41:52;10.20;99.90
12481;DHT22;6305;48.398;11.762;2022-09-27T06:44:22;10.40;99.90
12481;DHT22;6305;48.398;11.762;2022-09-27T06:46:51;10.40;99.90
12481;DHT22;6305;48.398;11.762;2022-09-27T06:49:19;10.40;99.90
12481;DHT22;6305;48.398;11.762;2022-09-27T06:51:47;10.60;99.90
12481;DHT22;6305;48.398;11.762;2022-09-27T06:54:14;10.80;99.90
12481;DHT22;6305;48.398;11.762;2022-09-27T06:56:40;10.80;99.90
12481;DHT22;6305;48.398;11.762;2022-09-27T06:59:07;10.80;99.90
12481;DHT22;6305;48.398;11.762;2022-09-27T07:01:52;10.70;99.90
12481;DHT22;6305;48.398;11.762;2022-09-27T07:04:19;10.80;99.90
12481;DHT22;6305;48.398;11.762;2022-09-27T07:06:46;12.30;99.90
12481;DHT22;6305;48.398;11.762;2022-09-27T07:09:12;15.20;99.90
12481;DHT22;6305;48.398;11.762;2022-09-27T07:11:40;17.50;99.90
12481;DHT22;6305;48.398;11.762;2022-09-27T07:14:08;18.90;99.90
12481;DHT22;6305;48.398;11.762;2022-09-27T07:16:35;18.20;99.90
12481;DHT22;6305;48.398;11.762;2022-09-27T07:19:03;16.60;99.90
12481;DHT22;6305;48.398;11.762;2022-09-27T07:21:32;15.10;99.90
12481;DHT22;6305;48.398;11.762;2022-09-27T07:23:58;14.00;99.90
12481;DHT22;6305;48.398;11.762;2022-09-27T07:26:25;13.40;99.90
12481;DHT22;6305;48.398;11.762;2022-09-27T07:28:52;13.10;99.90
12481;DHT22;6305;48.398;11.762;2022-09-27T07:31:19;13.30;99.90
12481;DHT22;6305;48.398;11.762;2022-09-27T07:33:46;13.70;99.90
12481;DHT22;6305;48.398;11.762;2022-09-27T07:36:14;14.40;99.90
12481;DHT22;6305;48.398;11.762;2022-09-27T07:38:41;15.00;99.90
12481;DHT22;6305;48.398;11.762;2022-09-27T07:41:08;16.00;99.90
12481;DHT22;6305;48.398;11.762;2022-09-27T07:43:37;17.70;99.90
12481;DHT22;6305;48.398;11.762;2022-09-27T07:46:04;20.00;94.30
12481;DHT22;6305;48.398;11.762;2022-09-27T07:48:32;21.10;79.80
12481;DHT22;6305;48.398;11.762;2022-09-27T07:50:59;21.00;71.20
12481;DHT22;6305;48.398;11.762;2022-09-27T07:53:27;19.10;71.70
12481;DHT22;6305;48.398;11.762;2022-09-27T07:55:54;17.90;78.80
12481;DHT22;6305;48.398;11.762;2022-09-27T07:58:21;16.60;85.20
12481;DHT22;6305;48.398;11.762;2022-09-27T08:00:48;15.40;91.80
12481;DHT22;6305;48.398;11.762;2022-09-27T08:03:16;14.20;97.10
12481;DHT22;6305;48.398;11.762;2022-09-27T08:05:43;13.50;99.90
12481;DHT22;6305;48.398;11.762;2022-09-27T08:08:11;13.50;99.90
12481;DHT22;6305;48.398;11.762;2022-09-27T08:10:40;13.70;99.90
12481;DHT22;6305;48.398;11.762;2022-09-27T08:13:14;13.30;99.90
12481;DHT22;6305;48.398;11.762;2022-09-27T08:15:42;12.50;99.90
12481;DHT22;6305;48.398;11.762;2022-09-27T08:18:09;12.00;99.90
12481;DHT22;6305;48.398;11.762;2022-09-27T08:20:35;11.80;99.90
12481;DHT22;6305;48.398;11.762;2022-09-27T08:23:02;11.90;99.90
12481;DHT22;6305;48.398;11.762;2022-09-27T08:25:29;12.10;99.90
12481;DHT22;6305;48.398;11.762;2022-09-27T08:27:58;12.10;99.90
12481;DHT22;6305;48.398;11.762;2022-09-27T08:30:26;11.80;99.90
12481;DHT22;6305;48.398;11.762;2022-09-27T08:32:55;11.60;99.90
12481;DHT22;6305;48.398;11.762;2022-09-27T08:35:22;11.50;99.90
12481;DHT22;6305;48.398;11.762;2022-09-27T08:37:53;11.40;99.90
12481;DHT22;6305;48.398;11.762;2022-09-27T08:40:20;11.50;99.90
12481;DHT22;6305;48.398;11.762;2022-09-27T08:42:59;11.60;99.90
12481;DHT22;6305;48.398;11.762;2022-09-27T08:45:33;11.90;99.90
12481;DHT22;6305;48.398;11.762;2022-09-27T08:48:02;12.70;99.90
12481;DHT22;6305;48.398;11.762;2022-09-27T08:50:31;13.60;99.90
12481;DHT22;6305;48.398;11.762;2022-09-27T08:53:03;14.00;99.90
12481;DHT22;6305;48.398;11.762;2022-09-27T08:55:36;13.80;99.90
12481;DHT22;6305;48.398;11.762;2022-09-27T08:58:12;13.70;99.90
12481;DHT22;6305;48.398;11.762;2022-09-27T09:00:40;13.80;99.90
12481;DHT22;6305;48.398;11.762;2022-09-27T09:03:15;14.50;99.90
12481;DHT22;6305;48.398;11.762;2022-09-27T09:05:51;14.80;99.90
12481;DHT22;6305;48.398;11.762;2022-09-27T09:08:30;15.60;99.90
12481;DHT22;6305;48.398;11.762;2022-09-27T09:11:07;16.20;99.90
12481;DHT22;6305;48.398;11.762;2022-09-27T09:14:07;16.30;97.60
12481;DHT22;6305;48.398;11.762;2022-09-27T09:16:43;16.00;96.50
12481;DHT22;6305;48.398;11.762;2022-09-27T09:19:27;15.40;97.90
12481;DHT22;6305;48.398;11.762;2022-09-27T09:22:07;14.70;99.80
12481;DHT22;6305;48.398;11.762;2022-09-27T09:24:48;14.50;99.90
12481;DHT22;6305;48.398;11.762;2022-09-27T09:27:24;14.50;99.90
12481;DHT22;6305;48.398;11.762;2022-09-27T09:30:03;14.70;99.90
12481;DHT22;6305;48.398;11.762;2022-09-27T09:32:40;14.50;99.90
12481;DHT22;6305;48.398;11.762;2022-09-27T09:35:16;14.50;99.90
12481;DHT22;6305;48.398;11.762;2022-09-27T09:37:45;16.10;99.90
12481;DHT22;6305;48.398;11.762;2022-09-27T09:40:19;16.60;94.80
12481;DHT22;6305;48.398;11.762;2022-09-27T09:42:50;16.20;90.90
12481;DHT22;6305;48.398;11.762;2022-09-27T09:45:21;16.20;90.70
12481;DHT22;6305;48.398;11.762;2022-09-27T09:47:53;16.20;90.80
12481;DHT22;6305;48.398;11.762;2022-09-27T09:50:25;15.80;89.80
12481;DHT22;6305;48.398;11.762;2022-09-27T09:52:56;15.80;91.50
12481;DHT22;6305;48.398;11.762;2022-09-27T09:55:28;15.70;88.90
12481;DHT22;6305;48.398;11.762;2022-09-27T09:58:04;15.10;92.00
12481;DHT22;6305;48.398;11.762;2022-09-27T10:00:39;14.40;94.10
12481;DHT22;6305;48.398;11.762;2022-09-27T10:03:06;13.90;97.00
12481;DHT22;6305;48.398;11.762;2022-09-27T10:16:00;14.10;97.60
12481;DHT22;6305;48.398;11.762;2022-09-27T10:18:29;14.20;96.80
12481;DHT22;6305;48.398;11.762;2022-09-27T10:20:58;15.80;93.80
12481;DHT22;6305;48.398;11.762;2022-09-27T10:23:26;16.30;90.50
12481;DHT22;6305;48.398;11.762;2022-09-27T10:25:56;16.00;90.00
12481;DHT22;6305;48.398;11.762;2022-09-27T10:28:32;15.30;90.60
12481;DHT22;6305;48.398;11.762;2022-09-27T10:31:04;14.40;92.40
12481;DHT22;6305;48.398;11.762;2022-09-27T10:33:31;13.90;95.50
12481;DHT22;6305;48.398;11.762;2022-09-27T10:35:59;14.00;96.40
12481;DHT22;6305;48.398;11.762;2022-09-27T10:38:29;14.10;97.30
12481;DHT22;6305;48.398;11.762;2022-09-27T10:40:57;14.20;96.90
12481;DHT22;6305;48.398;11.762;2022-09-27T10:43:27;14.30;95.90
12481;DHT22;6305;48.398;11.762;2022-09-27T10:46:11;14.30;95.10
12481;DHT22;6305;48.398;11.762;2022-09-27T10:48:39;14.40;94.70
12481;DHT22;6305;48.398;11.762;2022-09-27T10:51:20;14.20;94.80
12481;DHT22;6305;48.398;11.762;2022-09-27T10:53:48;14.20;95.80
12481;DHT22;6305;48.398;11.762;2022-09-27T10:56:21;14.20;95.30
12481;DHT22;6305;48.398;11.762;2022-09-27T10:58:49;15.00;95.00
12481;DHT22;6305;48.398;11.762;2022-09-27T11:01:18;17.40;89.30
12481;DHT22;6305;48.398;11.762;2022-09-27T11:03:47;19.40;73.40
12481;DHT22;6305;48.398;11.762;2022-09-27T11:06:19;19.50;65.90
12481;DHT22;6305;48.398;11.762;2022-09-27T11:08:52;18.50;65.70
12481;DHT22;6305;48.398;11.762;2022-09-27T11:11:23;17.20;70.20
12481;DHT22;6305;48.398;11.762;2022-09-27T11:13:58;15.90;75.70
12481;DHT22;6305;48.398;11.762;2022-09-27T11:16:41;14.90;80.40
12481;DHT22;6305;48.398;11.762;2022-09-27T11:19:25;15.10;88.30
12481;DHT22;6305;48.398;11.762;2022-09-27T11:22:00;17.60;80.50
12481;DHT22;6305;48.398;11.762;2022-09-27T11:24:46;20.20;68.70
12481;DHT22;6305;48.398;11.762;2022-09-27T11:27:26;21.50;58.60
12481;DHT22;6305;48.398;11.762;2022-09-27T11:30:04;22.50;52.50
12481;DHT22;6305;48.398;11.762;2022-09-27T11:32:46;22.70;51.40
12481;DHT22;6305;48.398;11.762;2022-09-27T11:35:32;23.20;50.80
12481;DHT22;6305;48.398;11.762;2022-09-27T11:38:16;24.00;50.00
12481;DHT22;6305;48.398;11.762;2022-09-27T11:40:54;24.50;46.60
12481;DHT22;6305;48.398;11.762;2022-09-27T11:43:36;22.10;46.50
12481;DHT22;6305;48.398;11.762;2022-09-27T11:46:15;19.50;51.00
12481;DHT22;6305;48.398;11.762;2022-09-27T11:48:55;17.30;56.40
12481;DHT22;6305;48.398;11.762;2022-09-27T11:51:33;16.30;62.80
12481;DHT22;6305;48.398;11.762;2022-09-27T11:54:29;15.90;67.30
12481;DHT22;6305;48.398;11.762;2022-09-27T11:57:07;15.60;70.50
12481;DHT22;6305;48.398;11.762;2022-09-27T11:59:56;15.20;75.00
12481;DHT22;6305;48.398;11.762;2022-09-27T12:02:45;15.20;78.20
12481;DHT22;6305;48.398;11.762;2022-09-27T12:05:31;15.00;83.70
12481;DHT22;6305;48.398;11.762;2022-09-27T12:08:16;14.40;92.30
12481;DHT22;6305;48.398;11.762;2022-09-27T12:10:47;13.70;93.90
12481;DHT22;6305;48.398;11.762;2022-09-27T12:13:28;13.20;98.00
12481;DHT22;6305;48.398;11.762;2022-09-27T12:16:00;13.10;99.90
12481;DHT22;6305;48.398;11.762;2022-09-27T12:18:30;13.30;99.90
12481;DHT22;6305;48.398;11.762;2022-09-27T12:21:01;13.90;97.50
12481;DHT22;6305;48.398;11.762;2022-09-27T12:23:38;16.10;90.30
12481;DHT22;6305;48.398;11.762;2022-09-27T12:26:09;16.60;79.20
12481;DHT22;6305;48.398;11.762;2022-09-27T12:28:42;16.40;79.00
12481;DHT22;6305;48.398;11.762;2022-09-27T12:31:14;15.90;79.10
12481;DHT22;6305;48.398;11.762;2022-09-27T12:33:47;16.70;79.30
12481;DHT22;6305;48.398;11.762;2022-09-27T12:36:19;17.10;76.30
12481;DHT22;6305;48.398;11.762;2022-09-27T12:38:54;18.00;70.70
12481;DHT22;6305;48.398;11.762;2022-09-27T12:41:23;17.80;67.40
12481;DHT22;6305;48.398;11.762;2022-09-27T12:43:50;17.30;65.30
12481;DHT22;6305;48.398;11.762;2022-09-27T12:46:26;16.80;66.10
12481;DHT22;6305;48.398;11.762;2022-09-27T12:49:04;16.30;67.10
12481;DHT22;6305;48.398;11.762;2022-09-27T12:51:39;16.30;68.70
12481;DHT22;6305;48.398;11.762;2022-09-27T12:54:25;16.70;69.90
12481;DHT22;6305;48.398;11.762;2022-09-27T12:57:01;18.30;64.30
12481;DHT22;6305;48.398;11.762;2022-09-27T12:59:43;18.60;59.90
12481;DHT22;6305;48.398;11.762;2022-09-27T13:05:33;20.10;57.00
12481;DHT22;6305;48.398;11.762;2022-09-27T13:08:21;21.00;53.70
12481;DHT22;6305;48.398;11.762;2022-09-27T13:10:59;21.00;53.20
12481;DHT22;6305;48.398;11.762;2022-09-27T13:13:33;21.10;52.40
12481;DHT22;6305;48.398;11.762;2022-09-27T13:16:03;21.10;52.30
12481;DHT22;6305;48.398;11.762;2022-09-27T13:18:48;21.60;52.10
12481;DHT22;6305;48.398;11.762;2022-09-27T13:24:38;19.20;53.80
12481;DHT22;6305;48.398;11.762;2022-09-27T13:27:37;20.00;54.40
12481;DHT22;6305;48.398;11.762;2022-09-27T13:33:32;18.50;56.90
12481;DHT22;6305;48.398;11.762;2022-09-27T13:36:17;18.70;57.90
12481;DHT22;6305;48.398;11.762;2022-09-27T13:39:16;19.90;59.20
12481;DHT22;6305;48.398;11.762;2022-09-27T13:42:07;20.60;54.90
12481;DHT22;6305;48.398;11.762;2022-09-27T13:44:58;19.50;53.80
12481;DHT22;6305;48.398;11.762;2022-09-27T13:47:37;18.60;56.90
12481;DHT22;6305;48.398;11.762;2022-09-27T13:50:21;18.70;58.30
12481;DHT22;6305;48.398;11.762;2022-09-27T13:52:58;19.60;57.70
12481;DHT22;6305;48.398;11.762;2022-09-27T13:55:43;20.30;55.90
12481;DHT22;6305;48.398;11.762;2022-09-27T13:58:38;21.60;53.70
12481;DHT22;6305;48.398;11.762;2022-09-27T14:01:14;22.00;51.20
12481;DHT22;6305;48.398;11.762;2022-09-27T14:03:44;20.70;52.00
12481;DHT22;6305;48.398;11.762;2022-09-27T14:06:16;19.30;55.60
12481;DHT22;6305;48.398;11.762;2022-09-27T14:08:48;18.20;58.10
12481;DHT22;6305;48.398;11.762;2022-09-27T14:11:19;17.10;61.70
12481;DHT22;6305;48.398;11.762;2022-09-27T14:13:53;16.40;65.70
12481;DHT22;6305;48.398;11.762;2022-09-27T14:16:20;16.00;70.20
12481;DHT22;6305;48.398;11.762;2022-09-27T14:18:49;16.70;73.80
12481;DHT22;6305;48.398;11.762;2022-09-27T14:21:25;17.00;71.20
12481;DHT22;6305;48.398;11.762;2022-09-27T14:24:19;16.40;71.90
12481;DHT22;6305;48.398;11.762;2022-09-27T14:26:50;15.50;77.40
12481;DHT22;6305;48.398;11.762;2022-09-27T14:29:21;14.80;83.80
12481;DHT22;6305;48.398;11.762;2022-09-27T14:32:02;14.50;89.70
12481;DHT22;6305;48.398;11.762;2022-09-27T14:34:30;14.30;90.20
12481;DHT22;6305;48.398;11.762;2022-09-27T14:36:57;14.50;90.90
12481;DHT22;6305;48.398;11.762;2022-09-27T14:39:42;14.60;90.10
12481;DHT22;6305;48.398;11.762;2022-09-27T14:42:18;14.60;86.30
12481;DHT22;6305;48.398;11.762;2022-09-27T14:44:48;15.20;82.10
12481;DHT22;6305;48.398;11.762;2022-09-27T14:47:18;14.90;81.20
12481;DHT22;6305;48.398;11.762;2022-09-27T14:49:46;14.30;83.30
12481;DHT22;6305;48.398;11.762;2022-09-27T14:52:19;13.80;84.90
12481;DHT22;6305;48.398;11.762;2022-09-27T14:54:59;13.50;87.10
12481;DHT22;6305;48.398;11.762;2022-09-27T14:57:27;13.20;88.80
12481;DHT22;6305;48.398;11.762;2022-09-27T14:59:59;13.00;90.20
12481;DHT22;6305;48.398;11.762;2022-09-27T15:02:29;12.80;91.30
12481;DHT22;6305;48.398;11.762;2022-09-27T15:04:58;12.70;92.20
12481;DHT22;6305;48.398;11.762;2022-09-27T15:07:27;12.60;93.30
12481;DHT22;6305;48.398;11.762;2022-09-27T15:09:54;12.50;94.30
12481;DHT22;6305;48.398;11.762;2022-09-27T15:12:24;12.40;95.20
12481;DHT22;6305;48.398;11.762;2022-09-27T15:14:53;12.30;95.60
12481;DHT22;6305;48.398;11.762;2022-09-27T15:17:24;12.40;96.50
12481;DHT22;6305;48.398;11.762;2022-09-27T15:19:58;12.60;97.10
12481;DHT22;6305;48.398;11.762;2022-09-27T15:22:34;12.70;97.60
12481;DHT22;6305;48.398;11.762;2022-09-27T15:25:15;12.80;97.50
12481;DHT22;6305;48.398;11.762;2022-09-27T15:27:47;12.50;97.90
12481;DHT22;6305;48.398;11.762;2022-09-27T15:30:17;12.30;98.80
12481;DHT22;6305;48.398;11.762;2022-09-27T15:32:49;12.10;99.80
12481;DHT22;6305;48.398;11.762;2022-09-27T15:35:28;12.00;99.90
12481;DHT22;6305;48.398;11.762;2022-09-27T15:38:12;11.80;99.90
12481;DHT22;6305;48.398;11.762;2022-09-27T15:41:11;11.60;99.90
12481;DHT22;6305;48.398;11.762;2022-09-27T15:43:41;11.20;99.90
12481;DHT22;6305;48.398;11.762;2022-09-27T15:46:28;10.70;99.90
12481;DHT22;6305;48.398;11.762;2022-09-27T15:49:30;10.20;99.90
12481;DHT22;6305;48.398;11.762;2022-09-27T15:51:59;9.80;99.90
12481;DHT22;6305;48.398;11.762;2022-09-27T15:54:27;9.60;99.90
12481;DHT22;6305;48.398;11.762;2022-09-27T15:56:56;9.50;99.90
12481;DHT22;6305;48.398;11.762;2022-09-27T15:59:28;9.40;99.90
12481;DHT22;6305;48.398;11.762;2022-09-27T16:01:58;9.30;99.90
12481;DHT22;6305;48.398;11.762;2022-09-27T16:04:37;9.30;99.90
12481;DHT22;6305;48.398;11.762;2022-09-27T16:07:17;9.30;99.90
12481;DHT22;6305;48.398;11.762;2022-09-27T16:09:49;9.30;99.90
12481;DHT22;6305;48.398;11.762;2022-09-27T16:12:19;9.20;99.90
12481;DHT22;6305;48.398;11.762;2022-09-27T16:14:46;9.20;99.90
12481;DHT22;6305;48.398;11.762;2022-09-27T16:17:13;9.10;99.90
12481;DHT22;6305;48.398;11.762;2022-09-27T16:19:41;9.00;99.90
12481;DHT22;6305;48.398;11.762;2022-09-27T16:22:10;8.90;99.90
12481;DHT22;6305;48.398;11.762;2022-09-27T16:24:37;8.70;99.90
12481;DHT22;6305;48.398;11.762;2022-09-27T16:27:03;8.50;99.90